Ummendorf, Germany

5:33 PM CET on February 07, 2016 (GMT +0100)
Schoeningen | | Change Station
CLOSE
Current Station
Personal Weather Station
Location: Schoeningen, Niedersachsen
Elevation: 480 ft
Nearby Weather Stations

Elev 480 ft 52.13 °N, 10.96 °E | Updated 32 minutes ago

Clear
Clear
50.2 °F
Feels Like 50.2 °F
N
4.6
Wind Variable Wind from SSW
Gusts 9.0 mph

Today
High -- | Low -- °F
--% Chance of Precip.
Yesterday
High -- | Low -- °F
Precip. -- in
Pressure 29.59 in
Visibility -9999.0 miles
Clouds
Dew Point 44 °F
Humidity 79%
Rainfall 0.00 in
Snow Depth Not available.
7:46 AM 5:12 PM
Waning Crescent, 1% visible
METAR EDBC 071620Z 23011KT CAVOK 10/05 Q1002
Pressure 29.59 in
Visibility -9999.0 miles
Clouds
Dew Point 44 °F
Humidity 79%
Rainfall 0.00 in
Snow Depth Not available.
7:46 AM 5:12 PM
Waning Crescent, 1% visible
METAR EDBC 071620Z 23011KT CAVOK 10/05 Q1002

10-Day Weather Forecast

Almanac

Astronomy

Feb. 07, 2016 Rise Set
Actual Time
Civil Twilight
Nautical Twilight
Astronomical Twilight
Moon
Length of Visible Light
Length of Day
Tomorrow will be .
, % of the Moon is Illuminated

Today's Extremes

Country Highs Country Lows

Community

WunderPhotos

Upload Photos

1,891,228 photos uploaded!

WunderBlog® & News

Nearby

Air Quality

  Air Quality AQ Index Pollutant
Not available.

Snow Depth

Station Depth Elevation

Earthquake Activity

City Distance Mag. Time & Date
Minimum magnitude displayed is 2.5.

Coastal Water Temperatures

Place Temperature

Stations

Nearby Weather Stations

Station Location Temp. Windchill Dew Point Humidity Wind Precip. Elev Updated Type